Weather observations for the past three days for
Ormond Beach, Ormond Beach Municipal Airport
| Date | Time (edt) | Wind (mph) | Vis. (mi.) | Weather | Sky Cond. | Temperature (ºF) | Relative Humidity | Wind Chill (°F) | Heat Index (°F) | Pressure | Precipitation (in) | ||||||
|---|---|---|---|---|---|---|---|---|---|---|---|---|---|---|---|---|---|
| Air | Dwpt | 6 hour | altimeter (in) | sea level (mb) | 1 hr | 3 hr | 6 hr | ||||||||||
| Max. | Min. | ||||||||||||||||
| 06 | 12:50 | W 9 | 7.00 | Partly Cloudy | SCT033 | 89.6 | 80.6 | 75% | 108 | 29.9 | 0.0 | ||||||
| 06 | 11:50 | W 9 | 7.00 | Partly Cloudy | SCT028 | 89.6 | 80.6 | 75% | 108 | 29.91 | 0.0 | ||||||
| 06 | 10:50 | W 9 | 7.00 | Partly Cloudy | SCT030 | 87.8 | 80.6 | 79% | 105 | 29.91 | 0.0 | ||||||
| 06 | 09:50 | W 9 | 8.00 | Partly Cloudy | SCT030 | 86 | 82.4 | 89% | 105 | 29.91 | 0.0 | ||||||
| 06 | 08:50 | W 6 | 8.00 | Fair | CLR | 80.6 | 80.6 | 100% | 89 | 29.92 | 0.0 | ||||||
| 06 | 07:50 | Calm | 7.00 | Fair | CLR | 77 | 77 | 100% | 78 | 29.92 | 0.0 | ||||||
| 06 | 06:50 | Calm | 7.00 | Fair | CLR | 75.2 | 75.2 | 100% | 73 | 29.9 | 0.0 | ||||||
| 05 | 18:50 | Calm | 8.00 | Mostly Cloudy | BKN060 | 78.8 | 78.8 | 100% | 83 | 29.9 | 0.0 | ||||||
| 05 | 17:50 | Calm | 8.00 | Mostly Cloudy | BKN060 | 77 | 77 | 100% | 78 | 29.9 | 0.0 | ||||||
| 05 | 16:50 | SE 7 | 8.00 | Mostly Cloudy | BKN060 | 77 | 77 | 100% | 78 | 29.92 | 0.0 | ||||||
| 05 | 13:50 | W 8 | 7.00 | Showers in Vicinity | SCT024 | 91.4 | 78.8 | 67% | 108 | 29.91 | 0.0 | ||||||
| 05 | 12:50 | W 8 | 7.00 | Partly Cloudy | SCT025 | 91.4 | 80.6 | 71% | 111 | 29.94 | 0.0 | ||||||
| 05 | 11:50 | W 8 | 7.00 | Partly Cloudy | SCT015 | 87.8 | 82.4 | 84% | 108 | 29.97 | 0.0 | ||||||
| 05 | 10:50 | W 8 | 7.00 | Partly Cloudy | SCT015 | 87.8 | 82.4 | 84% | 108 | 29.97 | 0.0 | ||||||
| 05 | 09:50 | SW 5 | 7.00 | Fair | CLR | 82.4 | 80.6 | 94% | 94 | 29.97 | 0.0 | ||||||
| 05 | 08:50 | SW 5 | 7.00 | Fair | CLR | 78.8 | 78.8 | 100% | 83 | 29.96 | 0.0 | ||||||
| 05 | 07:50 | SW 6 | 5.00 | Fog/Mist | CLR | 77 | 77 | 100% | 78 | 29.95 | 0.0 | ||||||
| 05 | 06:50 | SW 5 | 5.00 | Fog/Mist | CLR | 77 | 77 | 100% | 78 | 29.94 | 0.0 | ||||||
| 04 | 18:50 | SW 16 G 33 | 2.00 | Fog/Mist Thunderstorm Rain | BKN014 OVC030 | 78.8 | 78.8 | 100% | 83 | 30 | 0.0 | ||||||
| 04 | 17:50 | SE 12 | 7.00 | Showers in Vicinity | SCT040 | 86 | 82.4 | 89% | 105 | 29.93 | 0.0 | ||||||
| 04 | 16:50 | E 14 | 7.00 | Showers in Vicinity | BKN040 | 86 | 82.4 | 89% | 105 | 29.94 | 0.0 | ||||||
| 04 | 15:50 | SE 10 | 7.00 | Showers in Vicinity | BKN043 | 86 | 84.2 | 94% | 108 | 29.96 | 0.0 | ||||||
| 04 | 14:50 | E 12 | 7.00 | Showers in Vicinity | BKN026 | 86 | 84.2 | 94% | 108 | 29.97 | 0.0 | ||||||
| 04 | 13:50 | E 9 | 7.00 | Mostly Cloudy | BKN026 | 87.8 | 82.4 | 84% | 108 | 29.99 | 0.0 | ||||||
| 04 | 12:50 | NE 5 | 7.00 | Mostly Cloudy | BKN026 | 89.6 | 82.4 | 79% | 111 | 30 | 0.0 | ||||||
| 04 | 11:50 | SE 7 | 7.00 | Mostly Cloudy | BKN026 | 91.4 | 82.4 | 75% | 114 | 30.02 | 0.0 | ||||||
| 04 | 10:50 | S 3 | 7.00 | Partly Cloudy | SCT022 | 89.6 | 82.4 | 79% | 111 | 30.02 | 0.0 | ||||||
| 04 | 09:50 | Calm | 7.00 | Fair | CLR | 84.2 | 82.4 | 94% | 101 | 30 | 0.0 | ||||||
| 04 | 08:50 | Calm | 7.00 | Partly Cloudy | SCT065 | 78.8 | 78.8 | 100% | 83 | 30 | 0.0 | ||||||
| 04 | 07:50 | Calm | 7.00 | Fair | CLR | 77 | 77 | 100% | 78 | 29.99 | 0.0 | ||||||
| 04 | 06:50 | Calm | 7.00 | Mostly Cloudy | BKN022 | 77 | 77 | 100% | 78 | 29.97 | 0.0 | ||||||
| 03 | 18:53 | SE 7 | 7.00 | Partly Cloudy | SCT018 | 82.4 | 80.6 | 94% | 94 | 29.95 | 0.0 | ||||||
| 03 | 17:53 | SE 5 | 7.00 | A Few Clouds | FEW020 | 84.2 | 80.6 | 89% | 98 | 29.94 | 0.0 | ||||||
| 03 | 16:50 | E 9 | 7.00 | A Few Clouds | FEW020 | 86 | 80.6 | 84% | 102 | 29.93 | 0.0 | ||||||
| 03 | 15:50 | E 9 | 7.00 | A Few Clouds | FEW019 | 86 | 80.6 | 84% | 102 | 29.95 | 0.0 | ||||||
| 03 | 14:50 | E 7 | 7.00 | Showers in Vicinity | BKN019 | 86 | 80.6 | 84% | 102 | 29.96 | 0.0 | ||||||
| 03 | 13:50 | E 6 | 7.00 | Showers in Vicinity | BKN018 | 84.2 | 80.6 | 89% | 98 | 29.98 | 0.0 | ||||||
| Date | Time (edt) | Wind (mph) | Vis. (mi.) | Weather | Sky Cond. | Air | Dwpt | Max. | Min. | Relative Humidity | Wind Chill (°F) | Heat Index (°F) | altimeter (in) | sea level (mb) | 1 hr | 3 hr | 6 hr |
| 6 hour | |||||||||||||||||
| Temperature (ºF) | Pressure | Precipitation (in) | |||||||||||||||